createdAt,value
2023-04-17T00:00:07.128Z,100521.50
2023-04-17T00:01:05.523Z,100528.94
2023-04-17T00:01:45.656Z,100515.19
2023-04-17T00:02:26.677Z,100530.38
2023-04-17T00:03:06.663Z,100530.38
2023-04-17T00:03:46.576Z,100530.38
2023-04-17T00:04:26.803Z,100514.53
2023-04-17T00:05:07.508Z,100495.53
2023-04-17T00:05:48.767Z,100526.66
2023-04-17T00:06:28.474Z,100524.06
2023-04-17T00:07:09.449Z,100527.53
2023-04-17T00:07:51.544Z,100522.06
2023-04-17T00:08:31.555Z,100497.19
2023-04-17T00:09:12.650Z,100500.34
2023-04-17T00:09:53.588Z,100522.63
2023-04-17T00:10:33.443Z,100509.16
2023-04-17T00:11:13.582Z,100531.28
2023-04-17T00:11:53.457Z,100523.16
2023-04-17T00:12:33.893Z,100525.16
2023-04-17T00:13:14.464Z,100515.44
2023-04-17T00:13:54.573Z,100509.31
2023-04-17T00:14:35.491Z,100528.03
2023-04-17T00:15:16.521Z,100522.47
2023-04-17T00:15:56.474Z,100521.72
2023-04-17T00:16:36.605Z,100524.88
2023-04-17T00:17:17.539Z,100538.03
2023-04-17T00:17:57.619Z,100521.06
2023-04-17T00:18:37.441Z,100535.16
2023-04-17T00:19:17.603Z,100526.13
2023-04-17T00:19:57.451Z,100523.00
2023-04-17T00:20:37.519Z,100529.13
2023-04-17T00:21:18.473Z,100538.81
2023-04-17T00:21:58.521Z,100524.31
2023-04-17T00:22:40.441Z,100531.44
2023-04-17T00:23:34.489Z,100532.56
2023-04-17T00:24:28.476Z,100530.84
2023-04-17T00:25:23.451Z,100526.97
2023-04-17T00:26:17.466Z,100535.56
2023-04-17T00:27:11.485Z,100538.25
2023-04-17T00:27:58.444Z,100524.81
2023-04-17T00:28:32.461Z,100522.28
2023-04-17T00:29:19.443Z,100536.25
2023-04-17T00:29:53.526Z,100543.94
2023-04-17T00:30:40.444Z,100535.81
2023-04-17T00:31:14.698Z,100529.09
2023-04-17T00:32:01.468Z,100528.78
2023-04-17T00:32:35.824Z,100527.94
2023-04-17T00:33:22.454Z,100519.63
2023-04-17T00:33:56.623Z,100526.06
2023-04-17T00:34:44.408Z,100541.06
2023-04-17T00:35:18.496Z,100538.22
2023-04-17T00:36:05.460Z,100539.31
2023-04-17T00:36:39.475Z,100539.44
2023-04-17T00:37:26.459Z,100547.03
2023-04-17T00:38:00.609Z,100542.47
2023-04-17T00:38:48.480Z,100542.72
2023-04-17T00:39:22.529Z,100544.00
2023-04-17T00:40:10.402Z,100543.31
2023-04-17T00:40:47.123Z,100543.00
2023-04-17T00:41:34.465Z,100540.69
2023-04-17T00:42:08.469Z,100533.28
2023-04-17T00:42:59.442Z,100542.16
2023-04-17T00:43:33.534Z,100538.44
2023-04-17T00:44:13.451Z,100537.59
2023-04-17T00:44:53.519Z,100541.88
2023-04-17T00:45:34.411Z,100547.13
2023-04-17T00:46:14.656Z,100544.97
2023-04-17T00:46:54.406Z,100527.09
2023-04-17T00:47:34.622Z,100538.06
2023-04-17T00:48:15.408Z,100524.94
2023-04-17T00:48:55.488Z,100544.88
2023-04-17T00:49:36.452Z,100539.69
2023-04-17T00:50:17.757Z,100544.56
2023-04-17T00:50:58.509Z,100553.13
2023-04-17T00:51:39.759Z,100529.56
2023-04-17T00:52:23.434Z,100520.28
2023-04-17T00:53:03.559Z,100539.16
2023-04-17T00:53:44.423Z,100541.72
2023-04-17T00:54:24.702Z,100548.72
2023-04-17T00:55:06.467Z,100542.31
2023-04-17T00:55:47.541Z,100545.72
2023-04-17T00:56:28.433Z,100549.56
2023-04-17T00:57:09.501Z,100546.88
2023-04-17T00:57:50.437Z,100538.44
2023-04-17T00:58:30.492Z,100545.56
2023-04-17T00:59:13.652Z,100547.97
2023-04-17T00:59:55.537Z,100542.00
2023-04-17T01:00:35.405Z,100546.97
2023-04-17T01:01:17.928Z,100548.59
2023-04-17T01:01:59.430Z,100534.84
2023-04-17T01:02:39.636Z,100547.72
2023-04-17T01:03:20.704Z,100546.72
2023-04-17T01:04:01.905Z,100545.50
2023-04-17T01:04:44.406Z,100539.13
2023-04-17T01:05:24.591Z,100546.88
2023-04-17T01:06:05.394Z,100543.31
2023-04-17T01:06:45.495Z,100548.03
2023-04-17T01:07:25.426Z,100536.28
2023-04-17T01:08:05.823Z,100550.69
2023-04-17T01:08:50.386Z,100549.56
2023-04-17T01:09:44.377Z,100543.38
2023-04-17T01:10:38.424Z,100548.13
2023-04-17T01:11:25.407Z,100549.66
2023-04-17T01:11:59.519Z,100543.06
2023-04-17T01:12:47.415Z,100547.84
2023-04-17T01:13:21.503Z,100550.03
2023-04-17T01:14:08.413Z,100558.72
2023-04-17T01:14:42.514Z,100550.94
2023-04-17T01:15:29.403Z,100558.63
2023-04-17T01:16:03.426Z,100554.53
2023-04-17T01:16:51.522Z,100562.81
2023-04-17T01:17:28.400Z,100549.06
2023-04-17T01:18:15.487Z,100555.16
2023-04-17T01:18:49.585Z,100550.22
2023-04-17T01:19:37.436Z,100526.94
2023-04-17T01:20:12.632Z,100554.41
2023-04-17T01:20:59.803Z,100555.44
2023-04-17T01:21:33.532Z,100521.53
2023-04-17T01:22:14.421Z,100555.97
2023-04-17T01:22:58.526Z,100559.19
2023-04-17T01:23:58.457Z,100553.34
2023-04-17T01:24:38.545Z,100557.81
2023-04-17T01:25:18.487Z,100553.88
2023-04-17T01:25:58.468Z,100560.91
2023-04-17T01:26:39.383Z,100561.13
2023-04-17T01:27:29.431Z,100548.19
2023-04-17T01:28:23.410Z,100563.66
2023-04-17T01:29:17.411Z,100553.81
2023-04-17T01:30:12.656Z,100561.84
2023-04-17T01:31:06.464Z,100561.03
2023-04-17T01:32:00.360Z,100555.44
2023-04-17T01:32:48.416Z,100560.72
2023-04-17T01:33:22.485Z,100553.44
2023-04-17T01:34:09.379Z,100561.56
2023-04-17T01:34:43.565Z,100554.97
2023-04-17T01:35:30.401Z,100549.06
2023-04-17T01:36:04.508Z,100550.06
2023-04-17T01:36:51.394Z,100560.56
2023-04-17T01:37:25.476Z,100555.81
2023-04-17T01:38:14.084Z,100559.88
2023-04-17T01:38:48.428Z,100557.91
2023-04-17T01:39:35.352Z,100560.75
2023-04-17T01:40:09.747Z,100549.59
2023-04-17T01:40:56.382Z,100557.25
2023-04-17T01:41:30.673Z,100556.03
2023-04-17T01:42:17.330Z,100558.72
2023-04-17T01:42:51.567Z,100549.75
2023-04-17T01:43:31.467Z,100547.16
2023-04-17T01:44:11.452Z,100550.09
2023-04-17T01:44:52.373Z,100555.38
2023-04-17T01:45:32.475Z,100553.41
2023-04-17T01:46:13.489Z,100552.56
2023-04-17T01:46:54.487Z,100561.81
2023-04-17T01:47:34.405Z,100548.69
2023-04-17T01:48:14.441Z,100553.22
2023-04-17T01:48:54.353Z,100544.88
2023-04-17T01:49:34.502Z,100554.91
2023-04-17T01:50:18.403Z,100554.78
2023-04-17T01:50:59.572Z,100551.72
2023-04-17T01:51:39.344Z,100548.00
2023-04-17T01:52:19.504Z,100539.06
2023-04-17T01:52:59.509Z,100555.16
2023-04-17T01:53:40.613Z,100561.28
2023-04-17T01:54:22.436Z,100550.19
2023-04-17T01:55:04.010Z,100558.06
2023-04-17T01:55:44.369Z,100557.31
2023-04-17T01:56:24.466Z,100558.19
2023-04-17T01:57:04.378Z,100545.03
2023-04-17T01:57:44.496Z,100543.56
2023-04-17T01:58:26.620Z,100553.16
2023-04-17T01:59:07.404Z,100557.19
2023-04-17T01:59:47.468Z,100553.75
2023-04-17T02:00:27.470Z,100558.19
2023-04-17T02:01:07.355Z,100561.09
2023-04-17T02:01:48.034Z,100549.19
2023-04-17T02:02:50.458Z,100558.63
2023-04-17T02:03:44.516Z,100554.69
2023-04-17T02:04:38.454Z,100554.81
2023-04-17T02:05:18.395Z,100549.28
2023-04-17T02:06:00.512Z,100555.78
2023-04-17T02:06:41.361Z,100559.06
2023-04-17T02:07:22.884Z,100552.72
2023-04-17T02:08:03.299Z,100552.47
2023-04-17T02:08:43.522Z,100556.03
2023-04-17T02:09:23.470Z,100558.16
2023-04-17T02:10:03.469Z,100550.63
2023-04-17T02:10:43.411Z,100558.34
2023-04-17T02:11:24.475Z,100560.56
2023-04-17T02:12:04.386Z,100565.97
2023-04-17T02:12:44.467Z,100537.13
2023-04-17T02:13:24.359Z,100552.31
2023-04-17T02:14:05.486Z,100571.34
2023-04-17T02:14:45.351Z,100564.94
2023-04-17T02:15:25.444Z,100558.00
2023-04-17T02:16:05.390Z,100566.06
2023-04-17T02:16:48.322Z,100573.81
2023-04-17T02:17:29.628Z,100575.53
2023-04-17T02:18:10.420Z,100569.97
2023-04-17T02:18:51.425Z,100554.25
2023-04-17T02:19:31.458Z,100573.16
2023-04-17T02:20:15.380Z,100569.84
2023-04-17T02:20:55.605Z,100570.44
2023-04-17T02:21:35.379Z,100573.00
2023-04-17T02:22:15.795Z,100576.47
2023-04-17T02:22:57.455Z,100577.44
2023-04-17T02:23:37.597Z,100581.41
2023-04-17T02:24:17.344Z,100580.41
2023-04-17T02:24:57.415Z,100574.81
2023-04-17T02:25:38.618Z,100552.84
2023-04-17T02:26:18.475Z,100545.19
2023-04-17T02:26:59.349Z,100583.00
2023-04-17T02:27:39.661Z,100573.53
2023-04-17T02:28:19.301Z,100577.66
2023-04-17T02:28:59.381Z,100580.22
2023-04-17T02:29:40.360Z,100582.06
2023-04-17T02:30:20.549Z,100582.28
2023-04-17T02:31:02.622Z,100560.19
2023-04-17T02:31:42.432Z,100580.06
2023-04-17T02:32:24.444Z,100578.63
2023-04-17T02:33:05.499Z,100577.53
2023-04-17T02:33:46.314Z,100577.38
2023-04-17T02:34:26.428Z,100573.16
2023-04-17T02:35:07.300Z,100579.66
2023-04-17T02:35:47.447Z,100582.00
2023-04-17T02:36:28.421Z,100579.66
2023-04-17T02:37:09.421Z,100584.72
2023-04-17T02:37:49.327Z,100581.63
2023-04-17T02:38:30.494Z,100570.91
2023-04-17T02:39:12.598Z,100575.94
2023-04-17T02:39:53.475Z,100583.19
2023-04-17T02:40:34.348Z,100589.59
2023-04-17T02:41:14.401Z,100582.72
2023-04-17T02:41:54.304Z,100580.53
2023-04-17T02:42:34.403Z,100585.69
2023-04-17T02:43:15.305Z,100564.59
2023-04-17T02:43:56.737Z,100576.88
2023-04-17T02:44:36.295Z,100571.47
2023-04-17T02:45:17.380Z,100578.38
2023-04-17T02:45:58.328Z,100579.41
2023-04-17T02:46:38.554Z,100571.63
2023-04-17T02:47:19.346Z,100567.22
2023-04-17T02:47:59.452Z,100576.19
2023-04-17T02:48:39.407Z,100572.78
2023-04-17T02:49:19.356Z,100582.59
2023-04-17T02:50:01.361Z,100577.19
2023-04-17T02:50:41.684Z,100569.59
2023-04-17T02:51:22.291Z,100563.81
2023-04-17T02:52:02.393Z,100576.22
2023-04-17T02:52:42.331Z,100562.97
2023-04-17T02:53:22.407Z,100572.28
2023-04-17T02:54:02.259Z,100572.53
2023-04-17T02:54:42.667Z,100554.38
2023-04-17T02:55:23.342Z,100573.28
2023-04-17T02:56:04.430Z,100572.28
2023-04-17T02:56:45.366Z,100578.41
2023-04-17T02:57:25.472Z,100574.72
2023-04-17T02:58:05.313Z,100573.28
2023-04-17T02:58:45.571Z,100575.22
2023-04-17T02:59:26.344Z,100564.41
2023-04-17T03:00:12.794Z,100570.19
2023-04-17T03:00:54.511Z,100579.28
2023-04-17T03:01:37.687Z,100579.16
2023-04-17T03:02:18.406Z,100569.81
2023-04-17T03:02:58.445Z,100574.00
2023-04-17T03:03:41.637Z,100578.91
2023-04-17T03:04:22.469Z,100574.50
2023-04-17T03:05:02.562Z,100574.28
2023-04-17T03:05:42.452Z,100563.69
2023-04-17T03:06:23.291Z,100586.88
2023-04-17T03:07:04.061Z,100579.28
2023-04-17T03:07:45.288Z,100569.31
2023-04-17T03:08:25.404Z,100566.38
2023-04-17T03:09:05.262Z,100577.31
2023-04-17T03:09:47.542Z,100581.88
2023-04-17T03:10:27.314Z,100559.28
2023-04-17T03:11:08.370Z,100583.22
2023-04-17T03:11:50.323Z,100580.50
2023-04-17T03:12:30.364Z,100578.53
2023-04-17T03:13:11.286Z,100563.69
2023-04-17T03:13:51.503Z,100546.25
2023-04-17T03:14:32.340Z,100568.09
2023-04-17T03:15:13.399Z,100580.88
2023-04-17T03:15:54.362Z,100563.94
2023-04-17T03:16:34.443Z,100572.44
2023-04-17T03:17:15.280Z,100578.41
2023-04-17T03:17:55.423Z,100580.63
2023-04-17T03:18:35.277Z,100562.47
2023-04-17T03:19:15.400Z,100579.91
2023-04-17T03:19:56.291Z,100578.41
2023-04-17T03:20:36.389Z,100578.91
2023-04-17T03:21:16.309Z,100577.34
2023-04-17T03:21:56.350Z,100566.38
2023-04-17T03:22:36.275Z,100571.75
2023-04-17T03:23:16.460Z,100579.84
2023-04-17T03:23:57.383Z,100574.47
2023-04-17T03:24:37.332Z,100572.97
2023-04-17T03:25:18.308Z,100582.06
2023-04-17T03:25:58.365Z,100579.59
2023-04-17T03:26:38.294Z,100580.34
2023-04-17T03:27:24.258Z,100581.91
2023-04-17T03:28:05.321Z,100576.91
2023-04-17T03:28:45.365Z,100574.91
2023-04-17T03:29:25.258Z,100581.81
2023-04-17T03:30:05.361Z,100577.00
2023-04-17T03:30:45.408Z,100573.09
2023-04-17T03:31:25.849Z,100588.56
2023-04-17T03:32:07.375Z,100590.88
2023-04-17T03:32:47.425Z,100589.28
2023-04-17T03:33:27.292Z,100584.00
2023-04-17T03:34:07.406Z,100585.34
2023-04-17T03:34:47.252Z,100585.50
2023-04-17T03:35:21.197Z,100586.97
2023-04-17T03:36:09.374Z,100572.47
2023-04-17T03:36:43.059Z,100591.84
2023-04-17T03:37:30.268Z,100590.41
2023-04-17T03:38:04.004Z,100590.63
2023-04-17T03:38:51.279Z,100591.16
2023-04-17T03:39:25.057Z,100594.56
2023-04-17T03:40:13.260Z,100598.38
2023-04-17T03:40:47.048Z,100599.84
2023-04-17T03:41:36.297Z,100591.59
2023-04-17T03:42:14.424Z,100590.88
2023-04-17T03:42:55.256Z,100592.84
2023-04-17T03:43:29.357Z,100592.84
2023-04-17T03:44:04.723Z,100593.34
2023-04-17T03:44:44.271Z,100599.97
2023-04-17T03:45:18.332Z,100577.78
2023-04-17T03:45:52.071Z,100595.56
2023-04-17T03:46:32.485Z,100594.88
2023-04-17T03:47:06.374Z,100585.94
2023-04-17T03:47:41.764Z,100594.88
2023-04-17T03:48:22.304Z,100593.78
2023-04-17T03:48:56.343Z,100590.09
2023-04-17T03:49:29.978Z,100599.03
2023-04-17T03:50:11.224Z,100581.75
2023-04-17T03:50:45.416Z,100600.28
2023-04-17T03:51:20.069Z,100609.47
2023-04-17T03:52:00.230Z,100603.00
2023-04-17T03:52:34.316Z,100605.44
2023-04-17T03:53:08.020Z,100582.56
2023-04-17T03:53:48.330Z,100605.69
2023-04-17T03:54:22.387Z,100608.88
2023-04-17T03:54:58.147Z,100605.69
2023-04-17T03:55:39.223Z,100602.22
2023-04-17T03:56:13.371Z,100612.81
2023-04-17T03:56:47.029Z,100610.84
2023-04-17T03:57:27.225Z,100616.25
2023-04-17T03:58:01.524Z,100609.00
2023-04-17T03:58:36.110Z,100608.41
2023-04-17T03:59:16.247Z,100599.66
2023-04-17T03:59:50.502Z,100614.88
2023-04-17T04:00:24.802Z,100608.00
2023-04-17T04:01:08.290Z,100612.81
2023-04-17T04:01:43.816Z,100612.03
2023-04-17T04:02:20.125Z,100621.28
2023-04-17T04:03:00.321Z,100622.63
2023-04-17T04:03:35.745Z,100617.94
2023-04-17T04:04:10.091Z,100618.81
2023-04-17T04:04:50.467Z,100621.63
2023-04-17T04:05:24.447Z,100618.56
2023-04-17T04:05:59.029Z,100609.63
2023-04-17T04:06:39.224Z,100611.59
2023-04-17T04:07:13.400Z,100617.00
2023-04-17T04:07:47.017Z,100609.00
2023-04-17T04:08:28.250Z,100617.72
2023-04-17T04:09:02.372Z,100620.16
2023-04-17T04:09:36.171Z,100620.91
2023-04-17T04:10:17.229Z,100616.00
2023-04-17T04:10:51.264Z,100622.97
2023-04-17T04:11:25.010Z,100617.00
2023-04-17T04:12:05.206Z,100617.72
2023-04-17T04:12:39.383Z,100610.59
2023-04-17T04:13:13.360Z,100610.34
2023-04-17T04:13:54.229Z,100607.53
2023-04-17T04:14:28.405Z,100617.72
2023-04-17T04:15:02.189Z,100567.72
2023-04-17T04:15:42.317Z,100603.72
2023-04-17T04:16:16.764Z,100617.34
2023-04-17T04:16:51.047Z,100600.03
2023-04-17T04:17:32.269Z,100596.09
2023-04-17T04:18:06.621Z,100626.53
2023-04-17T04:18:40.976Z,100613.16
2023-04-17T04:19:22.240Z,100617.94
2023-04-17T04:19:56.343Z,100606.69
2023-04-17T04:20:30.138Z,100610.09
2023-04-17T04:21:12.357Z,100620.41
2023-04-17T04:21:46.450Z,100606.78
2023-04-17T04:22:21.253Z,100621.78
2023-04-17T04:23:04.232Z,100624.34
2023-04-17T04:23:40.201Z,100624.59
2023-04-17T04:24:14.373Z,100621.53
2023-04-17T04:24:56.253Z,100625.31
2023-04-17T04:25:32.446Z,100624.09
2023-04-17T04:26:06.104Z,100624.09
2023-04-17T04:26:50.235Z,100619.69
2023-04-17T04:27:24.302Z,100616.72
2023-04-17T04:27:57.956Z,100619.91
2023-04-17T04:28:38.335Z,100629.75
2023-04-17T04:29:14.010Z,100618.34
2023-04-17T04:29:49.819Z,100625.09
2023-04-17T04:30:34.200Z,100633.19
2023-04-17T04:31:08.436Z,100623.84
2023-04-17T04:31:42.584Z,100625.31
2023-04-17T04:32:23.276Z,100636.13
2023-04-17T04:32:57.590Z,100635.91
2023-04-17T04:33:31.999Z,100629.22
2023-04-17T04:34:13.230Z,100622.63
2023-04-17T04:34:47.428Z,100632.56
2023-04-17T04:35:22.309Z,100627.78
2023-04-17T04:36:03.226Z,100620.63
2023-04-17T04:36:41.839Z,100631.72
2023-04-17T04:37:16.135Z,100635.25
2023-04-17T04:37:56.270Z,100626.44
2023-04-17T04:38:33.054Z,100635.09
2023-04-17T04:39:06.974Z,100631.53
2023-04-17T04:39:50.261Z,100628.97
2023-04-17T04:40:24.638Z,100619.38
2023-04-17T04:41:06.284Z,100631.22
2023-04-17T04:41:52.175Z,100634.75
2023-04-17T04:42:27.137Z,100633.91
2023-04-17T04:43:08.499Z,100605.63
2023-04-17T04:43:48.313Z,100630.81
2023-04-17T04:44:29.176Z,100628.22
2023-04-17T04:45:13.684Z,100632.44
2023-04-17T04:45:54.185Z,100637.25
2023-04-17T04:46:34.319Z,100614.81
2023-04-17T04:47:14.202Z,100631.34
2023-04-17T04:47:55.409Z,100630.16
2023-04-17T04:48:35.206Z,100644.66
2023-04-17T04:49:15.273Z,100628.97
2023-04-17T04:49:55.159Z,100645.03
2023-04-17T04:50:35.263Z,100633.63
2023-04-17T04:51:15.202Z,100620.63
2023-04-17T04:51:56.669Z,100645.38
2023-04-17T04:52:37.174Z,100628.44
2023-04-17T04:53:17.383Z,100645.13
2023-04-17T04:53:57.277Z,100613.94
2023-04-17T04:54:37.247Z,100629.91
2023-04-17T04:55:17.142Z,100630.28
2023-04-17T04:55:58.324Z,100636.78
2023-04-17T04:56:39.151Z,100635.44
2023-04-17T04:57:20.264Z,100625.72
2023-04-17T04:58:01.198Z,100640.91
2023-04-17T04:58:41.284Z,100639.69
2023-04-17T04:59:22.180Z,100632.22
2023-04-17T05:00:06.388Z,100640.22
2023-04-17T05:00:47.230Z,100630.50
2023-04-17T05:01:28.007Z,100647.06
2023-04-17T05:02:11.211Z,100628.41
2023-04-17T05:02:52.396Z,100651.00
2023-04-17T05:03:33.450Z,100646.97
2023-04-17T05:04:14.472Z,100642.56
2023-04-17T05:04:56.294Z,100640.47
2023-04-17T05:05:37.655Z,100635.91
2023-04-17T05:06:28.280Z,100654.94
2023-04-17T05:07:04.889Z,100639.75
2023-04-17T05:07:53.165Z,100644.50
2023-04-17T05:08:28.348Z,100643.66
2023-04-17T05:09:16.927Z,100651.00
2023-04-17T05:09:52.257Z,100644.13
2023-04-17T05:10:33.171Z,100653.47
2023-04-17T05:11:19.265Z,100653.84
2023-04-17T05:12:01.381Z,100637.66
2023-04-17T05:12:42.678Z,100659.38
2023-04-17T05:13:24.157Z,100646.38
2023-04-17T05:14:06.461Z,100655.22
2023-04-17T05:14:47.361Z,100651.53
2023-04-17T05:15:27.885Z,100645.16
2023-04-17T05:16:14.246Z,100658.66
2023-04-17T05:16:55.840Z,100653.97
2023-04-17T05:17:37.135Z,100656.44
2023-04-17T05:18:17.262Z,100661.47
2023-04-17T05:18:58.200Z,100657.16
2023-04-17T05:19:43.262Z,100646.63
2023-04-17T05:20:25.257Z,100649.94
2023-04-17T05:21:06.405Z,100662.88
2023-04-17T05:21:48.173Z,100661.22
2023-04-17T05:22:29.864Z,100649.31
2023-04-17T05:23:14.358Z,100652.50
2023-04-17T05:23:55.594Z,100661.84
2023-04-17T05:24:38.525Z,100659.38
2023-04-17T05:25:20.790Z,100664.91
2023-04-17T05:26:03.146Z,100658.63
2023-04-17T05:26:44.342Z,100651.25
2023-04-17T05:27:24.182Z,100662.53
2023-04-17T05:28:05.860Z,100664.25
2023-04-17T05:28:52.147Z,100659.28
2023-04-17T05:29:33.637Z,100664.13
2023-04-17T05:30:18.200Z,100662.50
2023-04-17T05:30:59.191Z,100671.16
2023-04-17T05:31:40.174Z,100664.75
2023-04-17T05:32:20.316Z,100664.38
2023-04-17T05:33:02.258Z,100665.16
2023-04-17T05:33:42.189Z,100667.47
2023-04-17T05:34:30.240Z,100653.09
2023-04-17T05:35:04.885Z,100668.22
2023-04-17T05:35:56.088Z,100667.47
2023-04-17T05:36:31.615Z,100665.50
2023-04-17T05:37:19.165Z,100672.59
2023-04-17T05:37:55.260Z,100668.38
2023-04-17T05:38:38.168Z,100671.59
2023-04-17T05:39:19.342Z,100667.44
2023-04-17T05:39:59.200Z,100676.03
2023-04-17T05:40:40.209Z,100666.72
2023-04-17T05:41:29.337Z,100676.53
2023-04-17T05:42:10.356Z,100676.84
2023-04-17T05:42:57.474Z,100669.94
2023-04-17T05:43:31.977Z,100676.38
2023-04-17T05:44:15.142Z,100677.06
2023-04-17T05:44:50.264Z,100685.41
2023-04-17T05:45:27.188Z,100685.41
2023-04-17T05:46:10.153Z,100678.47
2023-04-17T05:46:44.301Z,100682.06
2023-04-17T05:47:18.194Z,100663.78
2023-04-17T05:48:00.177Z,100681.72
2023-04-17T05:48:36.610Z,100683.31
2023-04-17T05:49:14.216Z,100677.06
2023-04-17T05:49:58.283Z,100681.81
2023-04-17T05:50:34.319Z,100687.50
2023-04-17T05:51:07.889Z,100667.09
2023-04-17T05:51:48.116Z,100686.69
2023-04-17T05:52:23.356Z,100686.38
2023-04-17T05:52:57.923Z,100681.97
2023-04-17T05:53:39.316Z,100693.31
2023-04-17T05:54:13.219Z,100684.88
2023-04-17T05:54:46.857Z,100691.63
2023-04-17T05:55:28.229Z,100673.69
2023-04-17T05:56:03.411Z,100682.31
2023-04-17T05:56:37.880Z,100677.84
2023-04-17T05:57:19.116Z,100680.78
2023-04-17T05:57:55.227Z,100688.41
2023-04-17T05:58:31.508Z,100682.38
2023-04-17T05:59:13.678Z,100689.06
2023-04-17T05:59:55.184Z,100684.50
2023-04-17T06:00:37.175Z,100681.53
2023-04-17T06:01:42.937Z,100678.84
2023-04-17T06:03:03.444Z,100673.81
2023-04-17T06:03:57.453Z,100685.47
2023-04-17T06:04:54.433Z,100683.88
2023-04-17T06:05:49.251Z,100675.03
2023-04-17T06:06:44.166Z,100671.47
2023-04-17T06:07:38.196Z,100681.03
2023-04-17T06:08:32.106Z,100688.41
2023-04-17T06:09:26.430Z,100685.97
2023-04-17T06:10:22.143Z,100679.34
2023-04-17T06:11:14.819Z,100681.19
2023-04-17T06:11:49.179Z,100688.69
2023-04-17T06:12:37.177Z,100675.66
2023-04-17T06:13:12.264Z,100669.03
2023-04-17T06:13:59.247Z,100675.66
2023-04-17T06:14:34.366Z,100679.59
2023-04-17T06:15:21.085Z,100678.16
2023-04-17T06:15:56.224Z,100677.38
2023-04-17T06:16:37.141Z,100682.69
2023-04-17T06:17:17.750Z,100668.19
2023-04-17T06:18:00.238Z,100676.16
2023-04-17T06:18:41.437Z,100669.53
2023-04-17T06:19:25.984Z,100674.81
2023-04-17T06:20:11.233Z,100660.94
2023-04-17T06:20:52.092Z,100675.69
2023-04-17T06:21:33.178Z,100675.53
2023-04-17T06:22:14.178Z,100670.28
2023-04-17T06:22:58.469Z,100664.25
2023-04-17T06:23:41.078Z,100683.78
2023-04-17T06:24:21.300Z,100676.31
2023-04-17T06:25:01.102Z,100675.19
2023-04-17T06:25:42.224Z,100682.44
2023-04-17T06:26:23.073Z,100685.00
2023-04-17T06:27:04.747Z,100671.00
2023-04-17T06:27:48.076Z,100669.16
2023-04-17T06:28:28.239Z,100678.50
2023-04-17T06:29:10.254Z,100678.59
2023-04-17T06:29:51.257Z,100681.28
2023-04-17T06:30:31.099Z,100675.16
2023-04-17T06:31:11.201Z,100679.84
2023-04-17T06:31:53.086Z,100688.03
2023-04-17T06:32:33.336Z,100675.16
2023-04-17T06:33:14.157Z,100692.34
2023-04-17T06:33:55.186Z,100686.94
2023-04-17T06:34:35.094Z,100686.47
2023-04-17T06:35:19.158Z,100674.66
2023-04-17T06:36:00.104Z,100689.88
2023-04-17T06:36:41.185Z,100686.19
2023-04-17T06:37:21.098Z,100683.09
2023-04-17T06:38:02.493Z,100688.66
2023-04-17T06:38:43.162Z,100692.69
2023-04-17T06:39:23.471Z,100691.69
2023-04-17T06:40:04.066Z,100694.66
2023-04-17T06:40:46.420Z,100680.63
2023-04-17T06:41:27.101Z,100693.28
2023-04-17T06:42:07.322Z,100694.72
2023-04-17T06:42:47.066Z,100685.88
2023-04-17T06:43:27.139Z,100698.75
2023-04-17T06:44:08.140Z,100697.44
2023-04-17T06:44:49.148Z,100682.47
2023-04-17T06:45:29.109Z,100694.72
2023-04-17T06:46:09.252Z,100678.47
2023-04-17T06:46:49.181Z,100697.25
2023-04-17T06:47:29.212Z,100681.41
2023-04-17T06:48:10.032Z,100689.66
2023-04-17T06:48:52.174Z,100691.50
2023-04-17T06:49:33.135Z,100671.97
2023-04-17T06:50:14.182Z,100686.28
2023-04-17T06:50:55.064Z,100684.75
2023-04-17T06:51:35.117Z,100687.59
2023-04-17T06:52:16.076Z,100679.69
2023-04-17T06:52:56.164Z,100698.38
2023-04-17T06:53:36.043Z,100689.16
2023-04-17T06:54:16.114Z,100689.44
2023-04-17T06:54:56.084Z,100697.44
2023-04-17T06:55:36.236Z,100700.09
2023-04-17T06:56:17.051Z,100692.97
2023-04-17T06:56:57.165Z,100706.69
2023-04-17T06:57:37.059Z,100702.41
2023-04-17T06:58:17.118Z,100703.13
2023-04-17T06:59:00.381Z,100696.88
2023-04-17T06:59:41.125Z,100680.94
2023-04-17T07:00:23.131Z,100699.41
2023-04-17T07:01:03.143Z,100704.03
2023-04-17T07:01:44.067Z,100705.38
2023-04-17T07:02:24.346Z,100700.38
2023-04-17T07:03:05.163Z,100707.75
2023-04-17T07:03:49.353Z,100702.50
2023-04-17T07:04:30.075Z,100697.81
2023-04-17T07:05:13.266Z,100686.84
2023-04-17T07:05:53.049Z,100708.31
2023-04-17T07:06:36.394Z,100698.47
2023-04-17T07:07:18.006Z,100701.75
2023-04-17T07:07:58.153Z,100696.81
2023-04-17T07:08:39.074Z,100707.41
2023-04-17T07:09:19.206Z,100701.03
2023-04-17T07:10:00.073Z,100709.59
2023-04-17T07:10:40.166Z,100702.00
2023-04-17T07:11:20.059Z,100710.22
2023-04-17T07:12:01.213Z,100709.84
2023-04-17T07:12:42.035Z,100711.78
2023-04-17T07:13:22.169Z,100713.94
2023-04-17T07:14:02.027Z,100709.84
2023-04-17T07:14:36.092Z,100702.13
2023-04-17T07:15:24.099Z,100694.25
2023-04-17T07:15:59.402Z,100697.28
2023-04-17T07:16:40.080Z,100702.19
2023-04-17T07:17:14.096Z,100697.09
2023-04-17T07:17:47.881Z,100694.91
2023-04-17T07:18:29.126Z,100705.94
2023-04-17T07:19:03.123Z,100713.41
2023-04-17T07:19:37.453Z,100709.59
2023-04-17T07:20:17.999Z,100707.88
2023-04-17T07:20:52.106Z,100715.47
2023-04-17T07:21:26.856Z,100710.06
2023-04-17T07:22:07.026Z,100716.97
2023-04-17T07:22:41.463Z,100719.66
2023-04-17T07:23:16.045Z,100708.84
2023-04-17T07:23:57.030Z,100713.72
2023-04-17T07:24:34.794Z,100719.91
2023-04-17T07:25:08.993Z,100728.97
2023-04-17T07:25:50.023Z,100722.78
2023-04-17T07:26:24.107Z,100710.38
2023-04-17T07:26:57.881Z,100724.13
2023-04-17T07:27:39.025Z,100718.63
2023-04-17T07:28:14.106Z,100712.81
2023-04-17T07:28:48.396Z,100722.28
2023-04-17T07:29:31.502Z,100721.13
2023-04-17T07:30:05.219Z,100698.28
2023-04-17T07:30:38.792Z,100717.47
2023-04-17T07:31:20.060Z,100723.47
2023-04-17T07:31:54.221Z,100710.91
2023-04-17T07:32:28.420Z,100726.94
2023-04-17T07:33:09.105Z,100721.81
2023-04-17T07:33:43.149Z,100724.63
2023-04-17T07:34:17.232Z,100711.22
2023-04-17T07:34:58.010Z,100716.56
2023-04-17T07:35:32.133Z,100718.63
2023-04-17T07:36:08.364Z,100718.63
2023-04-17T07:36:48.003Z,100721.28
2023-04-17T07:37:22.081Z,100732.44
2023-04-17T07:37:58.069Z,100728.47
2023-04-17T07:38:43.006Z,100703.63
2023-04-17T07:39:17.062Z,100723.16
2023-04-17T07:39:50.879Z,100730.72
2023-04-17T07:40:32.022Z,100724.16
2023-04-17T07:41:06.148Z,100722.31
2023-04-17T07:41:39.755Z,100729.88
2023-04-17T07:42:20.999Z,100724.16
2023-04-17T07:42:56.297Z,100731.50